Klamath Falls, OR

9:06 PM PST on December 20, 2014 (GMT -0800)
Klamath Falls City Schools | Change Station
CLOSE
Current Station
Personal Weather Station
Location: Klamath Falls, OR
Elevation: 4104 ft
Nearby Weather Stations

Elev 4104 ft 42.22 °N, 121.75 °W | Updated 3 seconds ago

Overcast
Overcast
43.0 °F
Feels Like 43 °F
N
0.0
Wind Variable Wind from WNW
Gusts 5.0 mph

Today
High -- | Low -- °F
--% Chance of Precip.
Yesterday
High -- | Low -- °F
Precip. -- in
7:32 AM 4:37 PM
Waning Crescent, 1% visible
Pressure 29.99 in
Visibility 10.0 miles
Clouds Few 2300 ft
Mostly Cloudy 4500 ft
Overcast 7000 ft
Windchill 43 °F
Dew Point 43 °F
Humidity 100%
Rainfall 0.62 in
Snow Depth Not available.
UV 0 out of 12
Pollen .60 out of 12
Air Quality Not available.
Flu Activity Not available.
METAR KLMT 210453Z 22015KT 10SM -RA FEW023 BKN045 OVC070 08/04 A3000 RMK AO2 RAE27B51 SLP156 P0000 T00780044

More Conditions Fewer Conditions

Pressure 29.99 in
Visibility 10.0 miles
Clouds Few 2300 ft
Mostly Cloudy 4500 ft
Overcast 7000 ft
Windchill 43 °F
Dew Point 43 °F
Humidity 100%
Rainfall 0.62 in
Snow Depth Not available.
UV 0 out of 12
Pollen .60 out of 12
Air Quality Not available.
Flu Activity Not available.
METAR KLMT 210453Z 22015KT 10SM -RA FEW023 BKN045 OVC070 08/04 A3000 RMK AO2 RAE27B51 SLP156 P0000 T00780044

More Conditions Fewer Conditions

10-Day Weather Forecast

Almanac

Astronomy

Dec. 20, 2014 Rise Set
Actual Time
Civil Twilight
Nautical Twilight
Astronomical Twilight
Moon
Length of Visible Light
Length of Day
Tomorrow will be .
, % of the Moon is Illuminated

Today's Extremes

State Highs State Lows

Community

WunderPhotos

Upload Photos

1,779,358 photos uploaded!

WunderBlogs® & News

Nearby

Air Quality

  Air Quality AQ Index Pollutant
Not available.

Snow Depth

Station Depth Elevation

Earthquake Activity

City Distance Mag. Time & Date
Minimum magnitude displayed is 2.5.

Coastal Water Temperatures

Place Temperature

Nearby Weather Stations